Time;durP1;ratioP1;P1;durP2;ratioP2;P2;SDS_P1;SDS_P2;PMS_P1;PMS_P2;Temp;Humidity;BMP_temperature;BMP_pressure;BME280_temperature;BME280_humidity;BME280_pressure;Samples;Min_cycle;Max_cycle;Signal;HPM_P1;HPM_P2
2022/05/02 00:02:24;;;;;;;0.10;0.10;;;;;;;;;;4961812;28;20208;-71
2022/05/02 00:04:51;;;;;;;0.10;0.10;;;;;;;;;;4964151;28;20225;-71
2022/05/02 00:07:20;;;;;;;0.10;0.10;;;;;;;;;;4964952;28;20297;-71
2022/05/02 00:09:47;;;;;;;0.10;0.10;;;;;;;;;;4963283;28;20208;-70
2022/05/02 00:12:15;;;;;;;0.10;0.10;;;;;;;;;;4963858;28;20202;-70
2022/05/02 00:14:42;;;;;;;0.00;0.00;;;;;;;;;;4964368;28;20226;-70
2022/05/02 00:17:09;;;;;;;0.10;0.10;;;;;;;;;;4961405;28;20269;-70
2022/05/02 00:19:37;;;;;;;0.10;0.10;;;;;;;;;;4965249;28;20202;-70
2022/05/02 00:22:04;;;;;;;0.10;0.10;;;;;;;;;;4964448;28;20221;-69
2022/05/02 00:24:33;;;;;;;0.10;0.10;;;;;;;;;;4964559;28;20217;-71
2022/05/02 00:27:01;;;;;;;0.10;0.10;;;;;;;;;;4963121;28;20261;-70
2022/05/02 00:29:28;;;;;;;0.10;0.10;;;;;;;;;;4962380;28;20204;-69
2022/05/02 00:31:55;;;;;;;0.10;0.10;;;;;;;;;;4959980;28;20202;-70
2022/05/02 00:34:23;;;;;;;0.10;0.10;;;;;;;;;;4963606;28;20700;-70
2022/05/02 00:36:50;;;;;;;0.10;0.10;;;;;;;;;;4963527;28;20216;-71
2022/05/02 00:39:17;;;;;;;0.10;0.10;;;;;;;;;;4959986;28;20212;-71
2022/05/02 00:41:46;;;;;;;0.10;0.10;;;;;;;;;;4959407;28;20241;-70
2022/05/02 00:44:14;;;;;;;0.10;0.10;;;;;;;;;;4968675;28;20229;-70
2022/05/02 00:46:41;;;;;;;0.10;0.10;;;;;;;;;;4964443;28;20202;-70
2022/05/02 00:49:09;;;;;;;0.10;0.10;;;;;;;;;;4964214;28;20210;-70
2022/05/02 00:51:36;;;;;;;0.10;0.10;;;;;;;;;;4963034;28;20305;-70
2022/05/02 00:54:03;;;;;;;0.10;0.10;;;;;;;;;;4964208;28;20226;-69
2022/05/02 00:56:31;;;;;;;0.10;0.10;;;;;;;;;;4961833;28;20201;-70
2022/05/02 00:59:01;;;;;;;0.10;0.10;;;;;;;;;;4960522;28;20212;-69
2022/05/02 01:01:28;;;;;;;0.10;0.10;;;;;;;;;;4959572;28;20686;-71
2022/05/02 01:03:56;;;;;;;0.10;0.10;;;;;;;;;;4964222;28;20564;-71
2022/05/02 01:09:20;;;;;;;0.10;0.10;;;;;;;;;;4922545;29;20211;-70
2022/05/02 01:11:47;;;;;;;0.10;0.10;;;;;;;;;;4947930;28;20220;-71
2022/05/02 01:14:16;;;;;;;0.10;0.10;;;;;;;;;;4964086;28;20226;-70
2022/05/02 01:16:44;;;;;;;0.10;0.10;;;;;;;;;;4962826;28;20206;-70
2022/05/02 01:19:11;;;;;;;0.10;0.10;;;;;;;;;;4960055;28;20202;-70
2022/05/02 01:21:40;;;;;;;0.10;0.10;;;;;;;;;;4961107;28;20224;-71
2022/05/02 01:24:07;;;;;;;0.10;0.10;;;;;;;;;;4958937;28;20305;-71
2022/05/02 01:26:35;;;;;;;0.10;0.10;;;;;;;;;;4962968;28;20312;-70
2022/05/02 01:29:03;;;;;;;0.00;0.00;;;;;;;;;;4961735;28;20198;-71
2022/05/02 01:31:30;;;;;;;0.10;0.10;;;;;;;;;;4964453;28;20193;-71
2022/05/02 01:33:59;;;;;;;0.10;0.10;;;;;;;;;;4961899;28;20240;-70
2022/05/02 01:36:26;;;;;;;0.10;0.10;;;;;;;;;;4958696;28;20205;-70
2022/05/02 01:38:55;;;;;;;0.10;0.10;;;;;;;;;;4959082;28;20198;-72
2022/05/02 01:41:22;;;;;;;0.00;0.00;;;;;;;;;;4960827;28;20247;-71
2022/05/02 01:43:49;;;;;;;0.10;0.10;;;;;;;;;;4962579;28;20230;-71
2022/05/02 01:46:16;;;;;;;0.10;0.10;;;;;;;;;;4964420;28;20209;-71
2022/05/02 01:48:44;;;;;;;0.07;0.07;;;;;;;;;;4962473;28;20237;-70
2022/05/02 01:51:11;;;;;;;0.00;0.00;;;;;;;;;;4963975;28;20202;-71
2022/05/02 01:53:38;;;;;;;0.10;0.10;;;;;;;;;;4961957;28;20230;-71
2022/05/02 01:56:07;;;;;;;0.10;0.10;;;;;;;;;;4960358;28;20630;-70
2022/05/02 01:58:35;;;;;;;0.10;0.10;;;;;;;;;;4960305;28;20663;-71
2022/05/02 02:01:02;;;;;;;0.10;0.10;;;;;;;;;;4957130;28;20224;-70
2022/05/02 02:03:29;;;;;;;0.10;0.10;;;;;;;;;;4961118;28;20305;-70
2022/05/02 02:05:58;;;;;;;0.10;0.10;;;;;;;;;;4962679;28;20218;-70
2022/05/02 02:08:27;;;;;;;0.10;0.10;;;;;;;;;;4959564;28;20738;-70
2022/05/02 02:10:56;;;;;;;0.10;0.10;;;;;;;;;;4956365;28;20634;-71
2022/05/02 02:13:24;;;;;;;0.00;0.00;;;;;;;;;;4962028;28;20840;-70
2022/05/02 02:15:52;;;;;;;0.10;0.10;;;;;;;;;;4964623;28;20629;-72
2022/05/02 02:18:19;;;;;;;0.10;0.10;;;;;;;;;;4968227;28;20245;-71
2022/05/02 02:20:47;;;;;;;0.10;0.10;;;;;;;;;;4966338;28;20218;-71
2022/05/02 02:23:15;;;;;;;0.10;0.10;;;;;;;;;;4959617;28;20209;-70
2022/05/02 02:25:42;;;;;;;0.10;0.10;;;;;;;;;;4965132;28;20262;-70
2022/05/02 02:28:10;;;;;;;0.10;0.10;;;;;;;;;;4962587;28;20202;-70
2022/05/02 02:30:39;;;;;;;0.10;0.10;;;;;;;;;;4962118;28;20622;-70
2022/05/02 02:33:07;;;;;;;0.10;0.10;;;;;;;;;;4965579;28;20264;-71
2022/05/02 02:35:34;;;;;;;0.10;0.10;;;;;;;;;;4965403;28;20225;-71
2022/05/02 02:38:02;;;;;;;0.10;0.10;;;;;;;;;;4968139;28;20288;-70
2022/05/02 02:40:30;;;;;;;0.10;0.10;;;;;;;;;;4964570;28;20202;-70
2022/05/02 02:42:57;;;;;;;0.10;0.10;;;;;;;;;;4972159;28;20292;-71
2022/05/02 02:45:24;;;;;;;0.10;0.10;;;;;;;;;;4966144;28;20249;-70
2022/05/02 02:47:53;;;;;;;0.10;0.10;;;;;;;;;;4966350;28;20206;-71
2022/05/02 02:50:20;;;;;;;0.10;0.10;;;;;;;;;;4967441;28;20206;-71
2022/05/02 02:52:47;;;;;;;0.10;0.10;;;;;;;;;;4969527;28;20621;-71
2022/05/02 02:55:15;;;;;;;0.10;0.10;;;;;;;;;;4967686;28;20225;-71
2022/05/02 02:57:42;;;;;;;0.10;0.10;;;;;;;;;;4963675;28;20625;-71
2022/05/02 03:00:10;;;;;;;0.00;0.00;;;;;;;;;;4960103;28;21174;-71
2022/05/02 03:02:38;;;;;;;0.10;0.10;;;;;;;;;;4967013;28;20755;-70
2022/05/02 03:07:53;;;;;;;0.03;0.03;;;;;;;;;;4961082;28;20632;-70
2022/05/02 03:10:20;;;;;;;0.10;0.10;;;;;;;;;;4967716;28;20651;-70
2022/05/02 03:12:47;;;;;;;0.10;0.10;;;;;;;;;;4963818;28;21157;-71
2022/05/02 03:15:15;;;;;;;0.10;0.10;;;;;;;;;;4966070;28;20665;-71
2022/05/02 03:17:42;;;;;;;0.10;0.10;;;;;;;;;;4964278;28;20224;-71
2022/05/02 03:20:12;;;;;;;0.10;0.10;;;;;;;;;;4964132;28;20633;-71
2022/05/02 03:22:39;;;;;;;0.10;0.10;;;;;;;;;;4956900;28;20309;-71
2022/05/02 03:25:07;;;;;;;0.10;0.10;;;;;;;;;;4968991;28;20656;-70
2022/05/02 03:27:34;;;;;;;0.10;0.10;;;;;;;;;;4965298;28;20616;-72
2022/05/02 03:30:02;;;;;;;0.10;0.10;;;;;;;;;;4968373;28;21264;-70
2022/05/02 03:32:29;;;;;;;0.10;0.10;;;;;;;;;;4963891;28;21237;-71
2022/05/02 03:34:58;;;;;;;0.10;0.10;;;;;;;;;;4961264;28;20760;-71
2022/05/02 03:37:27;;;;;;;0.10;0.10;;;;;;;;;;4964302;28;20641;-70
2022/05/02 03:39:55;;;;;;;0.10;0.10;;;;;;;;;;4966951;28;20707;-71
2022/05/02 03:42:22;;;;;;;0.10;0.10;;;;;;;;;;4971775;28;20661;-71
2022/05/02 03:44:49;;;;;;;0.10;0.10;;;;;;;;;;4969667;28;20653;-71
2022/05/02 03:47:17;;;;;;;0.10;0.10;;;;;;;;;;4968616;28;20637;-71
2022/05/02 03:49:44;;;;;;;0.10;0.10;;;;;;;;;;4969991;28;20704;-71
2022/05/02 03:52:11;;;;;;;0.10;0.10;;;;;;;;;;4970217;28;20644;-71
2022/05/02 03:54:40;;;;;;;0.10;0.10;;;;;;;;;;4966350;28;20720;-71
2022/05/02 03:57:07;;;;;;;0.10;0.10;;;;;;;;;;4967489;28;20633;-71
2022/05/02 03:59:35;;;;;;;0.10;0.10;;;;;;;;;;4969103;28;20609;-71
2022/05/02 04:02:02;;;;;;;0.10;0.10;;;;;;;;;;4970456;28;21228;-70
2022/05/02 04:04:29;;;;;;;0.10;0.10;;;;;;;;;;4970735;28;20652;-71
2022/05/02 04:06:57;;;;;;;0.10;0.10;;;;;;;;;;4967759;28;20617;-71
2022/05/02 04:09:24;;;;;;;0.10;0.10;;;;;;;;;;4969445;28;20628;-72
2022/05/02 04:11:53;;;;;;;0.10;0.10;;;;;;;;;;4971802;28;20664;-72
2022/05/02 04:14:20;;;;;;;0.10;0.10;;;;;;;;;;4970986;28;20608;-72
2022/05/02 04:16:49;;;;;;;0.10;0.10;;;;;;;;;;4967627;28;20661;-71
2022/05/02 04:19:17;;;;;;;0.10;0.10;;;;;;;;;;4972198;28;20636;-72
2022/05/02 04:21:44;;;;;;;0.10;0.10;;;;;;;;;;4967160;28;20658;-72
2022/05/02 04:24:14;;;;;;;0.10;0.10;;;;;;;;;;4970908;28;20230;-72
2022/05/02 04:26:42;;;;;;;0.10;0.10;;;;;;;;;;4970457;28;20264;-72
2022/05/02 04:29:10;;;;;;;0.10;0.10;;;;;;;;;;4968903;28;20612;-72
2022/05/02 04:31:38;;;;;;;0.10;0.10;;;;;;;;;;4970386;28;20612;-72
2022/05/02 04:34:05;;;;;;;0.10;0.10;;;;;;;;;;4965248;28;20665;-72
2022/05/02 04:36:32;;;;;;;0.10;0.10;;;;;;;;;;4969753;28;20210;-73
2022/05/02 04:39:00;;;;;;;0.00;0.00;;;;;;;;;;4969442;28;20205;-73
2022/05/02 04:41:27;;;;;;;0.10;0.10;;;;;;;;;;4964335;28;20656;-72
2022/05/02 04:43:55;;;;;;;0.10;0.10;;;;;;;;;;4964417;28;20249;-74
2022/05/02 04:46:24;;;;;;;0.10;0.10;;;;;;;;;;4963404;28;20219;-73
2022/05/02 04:48:51;;;;;;;0.10;0.10;;;;;;;;;;4963409;28;20617;-73
2022/05/02 04:51:19;;;;;;;0.10;0.10;;;;;;;;;;4965419;28;20609;-72
2022/05/02 04:53:46;;;;;;;0.10;0.10;;;;;;;;;;4962212;28;20222;-74
2022/05/02 04:56:13;;;;;;;0.10;0.10;;;;;;;;;;4963452;28;20229;-75
2022/05/02 04:58:41;;;;;;;0.10;0.10;;;;;;;;;;4961312;28;20665;-73
2022/05/02 05:01:08;;;;;;;0.10;0.10;;;;;;;;;;4963191;28;20688;-74
2022/05/02 05:03:39;;;;;;;0.10;0.10;;;;;;;;;;4963333;28;20230;-75
2022/05/02 05:06:07;;;;;;;0.00;0.00;;;;;;;;;;4966043;28;20206;-74
2022/05/02 05:08:34;;;;;;;0.10;0.10;;;;;;;;;;4962664;28;20288;-75
2022/05/02 05:11:08;;;;;;;0.10;0.10;;;;;;;;;;4964358;28;20626;-75
2022/05/02 05:13:40;;;;;;;0.10;0.10;;;;;;;;;;4964245;28;20657;-72
2022/05/02 05:16:24;;;;;;;0.10;0.10;;;;;;;;;;4964549;28;20663;-74
2022/05/02 05:19:15;;;;;;;0.10;0.10;;;;;;;;;;4955948;28;21158;-74
2022/05/02 05:21:52;;;;;;;0.03;0.03;;;;;;;;;;4940050;28;20218;-73
2022/05/02 05:24:43;;;;;;;0.00;0.00;;;;;;;;;;4963735;28;20721;-74
2022/05/02 05:27:19;;;;;;;0.10;0.10;;;;;;;;;;4960306;28;20241;-73
2022/05/02 05:29:49;;;;;;;0.10;0.10;;;;;;;;;;4965265;28;20641;-74
2022/05/02 05:32:24;;;;;;;0.10;0.10;;;;;;;;;;4964639;28;20213;-74
2022/05/02 05:34:56;;;;;;;0.10;0.10;;;;;;;;;;4958957;28;20221;-74
2022/05/02 05:37:44;;;;;;;0.10;0.10;;;;;;;;;;4964070;28;20292;-73
2022/05/02 05:40:21;;;;;;;0.10;0.10;;;;;;;;;;4963379;28;20217;-74
2022/05/02 05:42:56;;;;;;;0.10;0.10;;;;;;;;;;4962641;28;20264;-74
2022/05/02 05:45:30;;;;;;;0.10;0.10;;;;;;;;;;4963710;28;20278;-74
2022/05/02 05:48:00;;;;;;;0.07;0.07;;;;;;;;;;4962036;28;20217;-74
2022/05/02 05:50:31;;;;;;;0.10;0.10;;;;;;;;;;4976656;28;20202;-73
2022/05/02 05:53:06;;;;;;;0.10;0.10;;;;;;;;;;4963287;28;20205;-74
2022/05/02 05:55:44;;;;;;;0.10;0.10;;;;;;;;;;5017098;22;20231;-74
2022/05/02 05:58:15;;;;;;;0.10;0.10;;;;;;;;;;5013971;28;20287;-74
2022/05/02 06:00:44;;;;;;;0.10;0.10;;;;;;;;;;5017482;28;20208;-74
2022/05/02 06:03:14;;;;;;;0.10;0.10;;;;;;;;;;5020781;28;20219;-74
2022/05/02 06:05:43;;;;;;;0.10;0.10;;;;;;;;;;4976601;28;20208;-73
2022/05/02 06:08:11;;;;;;;0.00;0.00;;;;;;;;;;4981087;28;20198;-73
2022/05/02 06:10:40;;;;;;;0.03;0.03;;;;;;;;;;4987307;28;20204;-75
2022/05/02 06:13:08;;;;;;;0.10;0.10;;;;;;;;;;4999799;28;20196;-74
2022/05/02 06:18:30;;;;;;;0.03;0.03;;;;;;;;;;4974637;28;20201;-74
2022/05/02 06:20:59;;;;;;;0.10;0.10;;;;;;;;;;4979962;28;20251;-74
2022/05/02 06:23:31;;;;;;;0.10;0.10;;;;;;;;;;4994177;28;20229;-74
2022/05/02 06:26:01;;;;;;;0.10;0.10;;;;;;;;;;4983683;28;20255;-74
2022/05/02 06:28:30;;;;;;;0.10;0.10;;;;;;;;;;4997691;28;20283;-74
2022/05/02 06:31:00;;;;;;;0.03;0.03;;;;;;;;;;4987415;28;20582;-74
2022/05/02 06:33:28;;;;;;;0.00;0.00;;;;;;;;;;4981860;28;20197;-74
2022/05/02 06:36:00;;;;;;;0.10;0.10;;;;;;;;;;4982050;28;20223;-75
2022/05/02 06:38:34;;;;;;;0.10;0.10;;;;;;;;;;4999351;28;20203;-74
2022/05/02 06:41:09;;;;;;;0.00;0.00;;;;;;;;;;4983187;28;20227;-74
2022/05/02 06:43:42;;;;;;;0.10;0.10;;;;;;;;;;4981199;28;20593;-74
2022/05/02 06:46:19;;;;;;;0.10;0.10;;;;;;;;;;4993830;28;20729;-74
2022/05/02 06:48:50;;;;;;;0.00;0.00;;;;;;;;;;4985510;28;20199;-74
2022/05/02 06:51:22;;;;;;;0.00;0.00;;;;;;;;;;4996512;28;20562;-74
2022/05/02 06:53:57;;;;;;;0.10;0.10;;;;;;;;;;4997589;28;20213;-75
2022/05/02 06:56:32;;;;;;;0.10;0.10;;;;;;;;;;4982606;28;20254;-75
2022/05/02 06:59:03;;;;;;;0.10;0.10;;;;;;;;;;4988667;28;20295;-74
2022/05/02 07:01:32;;;;;;;0.00;0.00;;;;;;;;;;4995338;28;20232;-74
2022/05/02 07:04:07;;;;;;;0.10;0.10;;;;;;;;;;4985413;28;20335;-74
2022/05/02 07:06:41;;;;;;;0.10;0.10;;;;;;;;;;4974724;28;20271;-75
2022/05/02 07:09:11;;;;;;;0.10;0.10;;;;;;;;;;4997470;28;20209;-74
2022/05/02 07:11:45;;;;;;;0.00;0.00;;;;;;;;;;5001208;28;20216;-73
2022/05/02 07:14:18;;;;;;;0.10;0.10;;;;;;;;;;4977396;28;20221;-74
2022/05/02 07:16:49;;;;;;;0.00;0.00;;;;;;;;;;4982775;28;20317;-74
2022/05/02 07:19:25;;;;;;;0.00;0.00;;;;;;;;;;4982630;28;20242;-74
2022/05/02 07:21:56;;;;;;;0.07;0.07;;;;;;;;;;4977610;28;20205;-75
2022/05/02 07:24:32;;;;;;;0.00;0.00;;;;;;;;;;4995606;23;20220;-78
2022/05/02 07:27:04;;;;;;;0.07;0.07;;;;;;;;;;5003535;28;20234;-78
2022/05/02 07:29:32;;;;;;;0.00;0.00;;;;;;;;;;4987624;28;20288;-78
2022/05/02 07:32:02;;;;;;;0.00;0.00;;;;;;;;;;4990589;28;20216;-78
2022/05/02 07:34:31;;;;;;;0.00;0.00;;;;;;;;;;4986634;28;20207;-77
2022/05/02 07:36:59;;;;;;;0.00;0.00;;;;;;;;;;4987840;28;20235;-77
2022/05/02 07:39:27;;;;;;;0.00;0.00;;;;;;;;;;4987868;28;20681;-78
2022/05/02 07:41:54;;;;;;;0.00;0.00;;;;;;;;;;4981284;28;20256;-78
2022/05/02 07:44:25;;;;;;;0.00;0.00;;;;;;;;;;5006165;28;20270;-77
2022/05/02 07:46:54;;;;;;;0.00;0.00;;;;;;;;;;4981420;23;20288;-74
2022/05/02 07:49:23;;;;;;;0.00;0.00;;;;;;;;;;4957557;28;20210;-74
2022/05/02 07:51:51;;;;;;;0.03;0.03;;;;;;;;;;4974802;28;20265;-74
2022/05/02 07:54:20;;;;;;;0.00;0.00;;;;;;;;;;4972325;28;20226;-74
2022/05/02 07:56:49;;;;;;;0.00;0.00;;;;;;;;;;4962557;28;20387;-75
2022/05/02 07:59:20;;;;;;;0.00;0.00;;;;;;;;;;4958377;28;20206;-74
2022/05/02 08:01:49;;;;;;;0.10;0.10;;;;;;;;;;4962347;28;20209;-74
2022/05/02 08:04:17;;;;;;;0.00;0.00;;;;;;;;;;4946812;28;20237;-74
2022/05/02 08:06:53;;;;;;;0.00;0.00;;;;;;;;;;4959103;28;20230;-74
2022/05/02 08:09:31;;;;;;;0.00;0.00;;;;;;;;;;4939042;28;20209;-73
2022/05/02 08:12:02;;;;;;;0.00;0.00;;;;;;;;;;4957620;28;20210;-74
2022/05/02 08:14:34;;;;;;;0.00;0.00;;;;;;;;;;4954079;28;20222;-73
2022/05/02 08:17:04;;;;;;;0.00;0.00;;;;;;;;;;4945912;28;20261;-73
2022/05/02 08:19:38;;;;;;;0.00;0.00;;;;;;;;;;4939599;28;20234;-73
2022/05/02 08:27:51;;;;;;;0.00;0.00;;;;;;;;;;4958582;28;20198;-74
2022/05/02 08:30:22;;;;;;;0.00;0.00;;;;;;;;;;4961908;28;20257;-73
2022/05/02 08:32:56;;;;;;;0.00;0.00;;;;;;;;;;4963114;28;20218;-74
2022/05/02 08:35:28;;;;;;;0.00;0.00;;;;;;;;;;4957589;28;20218;-75
2022/05/02 08:38:17;;;;;;;0.00;0.00;;;19.50;99.90;;;;;;4957449;28;20208;-74
2022/05/02 08:41:15;;;;;;;0.00;0.00;;;19.40;99.90;;;;;;4957358;28;20198;-75
2022/05/02 08:44:12;;;;;;;0.00;0.00;;;19.40;99.90;;;;;;4915682;28;20333;-76
2022/05/02 08:47:11;;;;;;;0.00;0.00;;;19.30;99.90;;;;;;4956406;28;20210;-74
2022/05/02 08:50:20;;;;;;;0.00;0.00;;;19.30;99.90;;;;;;4954733;28;20204;-74
2022/05/02 08:53:17;;;;;;;0.00;0.00;;;18.90;99.90;;;;;;4954374;28;20319;-74
2022/05/02 08:56:06;;;;;;;0.00;0.00;;;18.60;99.90;;;;;;4919059;28;20206;-74
2022/05/02 08:59:12;;;;;;;0.00;0.00;;;18.20;99.90;;;;;;4957663;28;20207;-75
2022/05/02 09:01:53;;;;;;;0.00;0.00;;;;;;;;;;4958675;28;20201;-74
2022/05/02 09:05:08;;;;;;;0.00;0.00;;;18.20;99.90;;;;;;4959592;28;20909;-73
2022/05/02 09:08:08;;;;;;;0.00;0.00;;;18.10;99.90;;;;;;4945831;28;20202;-74
2022/05/02 09:10:59;;;;;;;0.00;0.00;;;18.10;99.90;;;;;;4948160;28;20222;-74
2022/05/02 09:13:48;;;;;;;0.00;0.00;;;18.40;99.90;;;;;;4961514;28;20206;-75
2022/05/02 09:16:43;;;;;;;0.00;0.00;;;18.60;99.90;;;;;;4966643;28;20205;-75
2022/05/02 09:19:45;;;;;;;0.00;0.00;;;18.80;99.90;;;;;;4940048;28;20277;-74
2022/05/02 09:22:45;;;;;;;0.00;0.00;;;19.10;99.90;;;;;;4961213;28;20237;-74
2022/05/02 09:25:24;;;;;;;0.00;0.00;;;19.30;99.90;;;;;;4963950;28;20214;-74
2022/05/02 09:27:56;;;;;;;0.00;0.00;;;19.70;99.90;;;;;;4963185;28;20300;-75
2022/05/02 09:30:51;;;;;;;0.00;0.00;;;19.90;99.90;;;;;;4964055;28;20202;-73
2022/05/02 09:33:37;;;;;;;0.00;0.00;;;20.30;99.90;;;;;;4959434;28;20221;-74
2022/05/02 09:36:26;;;;;;;0.00;0.00;;;20.30;99.90;;;;;;4957632;28;20228;-74
2022/05/02 09:39:06;;;;;;;0.00;0.00;;;20.20;99.90;;;;;;4941828;28;20203;-74
2022/05/02 09:41:52;;;;;;;0.00;0.00;;;;;;;;;;4940604;28;20202;-74
2022/05/02 09:50:17;;;;;;;0.00;0.00;;;;;;;;;;4961573;28;20240;-75
2022/05/02 09:53:13;;;;;;;0.00;0.00;;;21.00;99.90;;;;;;4942615;28;20199;-75
2022/05/02 09:58:54;;;;;;;0.00;0.00;;;21.30;99.90;;;;;;4957702;28;20269;-74
2022/05/02 10:01:32;;;;;;;0.00;0.00;;;21.30;99.90;;;;;;4963523;28;20277;-75
2022/05/02 10:04:20;;;;;;;0.00;0.00;;;21.20;99.90;;;;;;4957200;28;20308;-75
2022/05/02 10:06:53;;;;;;;0.00;0.00;;;20.90;99.90;;;;;;4961292;28;20289;-74
2022/05/02 10:09:38;;;;;;;0.00;0.00;;;20.80;99.90;;;;;;4947619;28;20217;-74
2022/05/02 10:12:27;;;;;;;0.00;0.00;;;20.80;99.90;;;;;;4960752;28;20285;-75
2022/05/02 10:15:24;;;;;;;0.00;0.00;;;20.70;99.90;;;;;;4966476;28;20229;-74
2022/05/02 10:18:12;;;;;;;0.00;0.00;;;20.40;99.90;;;;;;4957644;28;20206;-74
2022/05/02 10:20:54;;;;;;;0.00;0.00;;;19.90;99.90;;;;;;4945251;28;20202;-74
2022/05/02 10:23:53;;;;;;;0.00;0.00;;;19.70;99.90;;;;;;4947770;28;20218;-74
2022/05/02 10:26:31;;;;;;;0.00;0.00;;;19.70;99.90;;;;;;4956559;28;20332;-74
2022/05/02 10:29:35;;;;;;;0.00;0.00;;;19.90;99.90;;;;;;4958725;28;20217;-74
2022/05/02 10:32:11;;;;;;;0.00;0.00;;;19.90;99.90;;;;;;4956927;28;20237;-74
2022/05/02 10:34:41;;;;;;;0.00;0.00;;;19.90;99.90;;;;;;4958465;28;20214;-74
2022/05/02 10:37:08;;;;;;;0.00;0.00;;;20.10;99.90;;;;;;4961399;28;20236;-74
2022/05/02 10:39:40;;;;;;;0.00;0.00;;;20.10;99.90;;;;;;4943491;28;20210;-74
2022/05/02 10:42:10;;;;;;;0.00;0.00;;;20.20;99.90;;;;;;4960106;28;20275;-74
2022/05/02 10:44:54;;;;;;;0.00;0.00;;;20.30;99.90;;;;;;4962104;28;20237;-74
2022/05/02 10:47:26;;;;;;;0.00;0.00;;;20.40;99.90;;;;;;4942846;28;20205;-76
2022/05/02 10:50:04;;;;;;;0.00;0.00;;;20.50;99.90;;;;;;4946407;28;20210;-77
2022/05/02 10:52:59;;;;;;;0.00;0.00;;;20.60;99.90;;;;;;4958806;28;20297;-77
2022/05/02 10:55:28;;;;;;;0.00;0.00;;;20.90;99.90;;;;;;4944458;28;20256;-76
2022/05/02 10:58:00;;;;;;;0.00;0.00;;;20.70;99.90;;;;;;4964594;28;20253;-75
2022/05/02 11:00:28;;;;;;;0.00;0.00;;;20.70;99.90;;;;;;4939580;28;20213;-74
2022/05/02 11:03:18;;;;;;;0.00;0.00;;;20.80;99.90;;;;;;4949837;28;20210;-75
2022/05/02 11:06:01;;;;;;;0.00;0.00;;;20.90;99.90;;;;;;4957649;28;20304;-74
2022/05/02 11:08:37;;;;;;;0.00;0.00;;;21.00;99.90;;;;;;4941824;28;20198;-74
2022/05/02 11:11:07;;;;;;;0.00;0.00;;;21.10;99.90;;;;;;4943797;28;20213;-75
2022/05/02 11:13:44;;;;;;;0.00;0.00;;;21.10;99.90;;;;;;4945970;28;20253;-75
2022/05/02 11:16:32;;;;;;;0.00;0.00;;;21.10;99.90;;;;;;4959422;28;20213;-75
2022/05/02 11:22:13;;;;;;;0.00;0.00;;;21.00;99.90;;;;;;4963278;28;20217;-74
2022/05/02 11:24:47;;;;;;;0.00;0.00;;;21.10;99.90;;;;;;4964148;28;20221;-75
2022/05/02 11:27:41;;;;;;;0.00;0.00;;;21.30;99.90;;;;;;4946397;28;20260;-77
2022/05/02 11:30:09;;;;;;;0.00;0.00;;;21.40;99.90;;;;;;4961699;28;20210;-77
2022/05/02 11:33:07;;;;;;;0.00;0.00;;;21.50;99.90;;;;;;4945122;28;20202;-76
2022/05/02 11:35:36;;;;;;;0.00;0.00;;;21.60;99.90;;;;;;4958229;28;20222;-76
2022/05/02 11:38:11;;;;;;;0.00;0.00;;;21.70;99.90;;;;;;4946100;28;20301;-77
2022/05/02 11:40:46;;;;;;;0.00;0.00;;;21.80;99.90;;;;;;4959736;28;20700;-77
2022/05/02 11:43:16;;;;;;;0.00;0.00;;;21.40;99.90;;;;;;4961864;28;20195;-76
2022/05/02 11:45:44;;;;;;;0.00;0.00;;;21.30;99.90;;;;;;4943186;28;20225;-76
2022/05/02 11:48:37;;;;;;;0.00;0.00;;;21.40;99.90;;;;;;4953881;28;20249;-76
2022/05/02 11:51:08;;;;;;;0.00;0.00;;;21.30;99.90;;;;;;4934976;28;20214;-77
2022/05/02 11:53:36;;;;;;;0.00;0.00;;;21.20;99.90;;;;;;4945688;28;20222;-78
2022/05/02 11:56:05;;;;;;;0.00;0.00;;;21.30;99.90;;;;;;4946450;28;20309;-78
2022/05/02 11:58:40;;;;;;;0.00;0.00;;;21.40;99.90;;;;;;4964403;28;20210;-77
2022/05/02 12:01:10;;;;;;;0.00;0.00;;;21.40;99.90;;;;;;4966133;28;20209;-77
2022/05/02 12:03:54;;;;;;;0.00;0.00;;;21.30;99.90;;;;;;4965648;28;20325;-76
2022/05/02 12:06:32;;;;;;;0.00;0.00;;;21.30;99.90;;;;;;4960678;28;20703;-77
2022/05/02 12:09:03;;;;;;;0.00;0.00;;;21.30;99.90;;;;;;4961255;28;20233;-77
2022/05/02 12:11:32;;;;;;;0.00;0.00;;;21.40;99.90;;;;;;4962699;28;20198;-77
2022/05/02 12:14:01;;;;;;;0.00;0.00;;;21.50;99.90;;;;;;4965309;28;20221;-77
2022/05/02 12:16:33;;;;;;;0.00;0.00;;;21.50;99.90;;;;;;4944989;28;20202;-77
2022/05/02 12:19:08;;;;;;;0.00;0.00;;;21.50;99.90;;;;;;4954104;28;20210;-77
2022/05/02 12:21:40;;;;;;;0.00;0.00;;;21.30;99.90;;;;;;4947796;28;20249;-77
2022/05/02 12:24:10;;;;;;;0.00;0.00;;;21.50;99.90;;;;;;4964492;28;20301;-77
2022/05/02 12:26:51;;;;;;;0.00;0.00;;;21.50;99.90;;;;;;4954565;28;20210;-77
2022/05/02 12:29:19;;;;;;;0.00;0.00;;;21.50;99.90;;;;;;4949010;28;20264;-77
2022/05/02 12:31:55;;;;;;;0.00;0.00;;;21.50;99.90;;;;;;4965678;28;20209;-77
2022/05/02 12:34:22;;;;;;;0.00;0.00;;;21.60;99.90;;;;;;4949015;28;20230;-78
2022/05/02 12:36:57;;;;;;;0.00;0.00;;;21.50;99.90;;;;;;4956414;28;20210;-77
2022/05/02 12:39:26;;;;;;;0.00;0.00;;;21.40;99.90;;;;;;4948028;28;20205;-78
2022/05/02 12:42:01;;;;;;;0.00;0.00;;;21.20;99.90;;;;;;4949926;28;20202;-77
2022/05/02 12:44:42;;;;;;;0.00;0.00;;;20.90;99.90;;;;;;4946606;28;20320;-78
2022/05/02 12:47:15;;;;;;;0.00;0.00;;;21.00;99.90;;;;;;4939561;28;20209;-77
2022/05/02 12:49:57;;;;;;;0.00;0.00;;;21.10;99.90;;;;;;4964916;28;20631;-76
2022/05/02 12:52:28;;;;;;;0.00;0.00;;;21.30;99.90;;;;;;4948686;28;20242;-77
2022/05/02 12:54:55;;;;;;;0.00;0.00;;;21.40;99.90;;;;;;4962085;28;20229;-76
2022/05/02 13:00:36;;;;;;;0.00;0.00;;;21.80;99.90;;;;;;4957780;28;20199;-76
2022/05/02 13:03:15;;;;;;;0.00;0.00;;;21.80;99.90;;;;;;4948127;28;20317;-77
2022/05/02 13:05:53;;;;;;;0.00;0.00;;;21.80;99.90;;;;;;4948647;28;20229;-77
2022/05/02 13:08:34;;;;;;;0.00;0.00;;;21.80;99.90;;;;;;4947327;28;20210;-73
2022/05/02 13:11:09;;;;;;;0.00;0.00;;;21.70;99.90;;;;;;4959577;28;20217;-75
2022/05/02 13:13:42;;;;;;;0.00;0.00;;;21.70;99.90;;;;;;4947051;28;20221;-75
2022/05/02 13:16:22;;;;;;;0.00;0.00;;;21.50;99.90;;;;;;4960141;28;20269;-75
2022/05/02 13:18:50;;;;;;;0.00;0.00;;;21.50;99.90;;;;;;4961520;28;20272;-75
2022/05/02 13:21:18;;;;;;;0.00;0.00;;;21.40;99.90;;;;;;4961493;28;20198;-75
2022/05/02 13:23:49;;;;;;;0.00;0.00;;;21.30;99.90;;;;;;4941616;28;20861;-75
2022/05/02 13:27:01;;;;;;;0.00;0.00;;;21.20;99.90;;;;;;4962395;28;20276;-75
2022/05/02 13:29:35;;;;;;;0.00;0.00;;;21.00;99.90;;;;;;4949988;28;20209;-74
2022/05/02 13:32:04;;;;;;;0.00;0.00;;;20.80;99.90;;;;;;4945856;28;20205;-75
2022/05/02 13:34:51;;;;;;;0.00;0.00;;;20.80;99.90;;;;;;4944226;28;20244;-75
2022/05/02 13:37:27;;;;;;;0.00;0.00;;;20.90;99.90;;;;;;4961319;28;20204;-75
2022/05/02 13:40:07;;;;;;;0.00;0.00;;;21.00;99.90;;;;;;4961754;28;20193;-76
2022/05/02 13:42:41;;;;;;;0.00;0.00;;;21.10;99.90;;;;;;4958064;28;20213;-76
2022/05/02 13:45:16;;;;;;;0.00;0.00;;;21.20;99.90;;;;;;4958497;28;20229;-76
2022/05/02 13:47:51;;;;;;;0.00;0.00;;;21.30;99.90;;;;;;4956819;28;20304;-77
2022/05/02 13:50:23;;;;;;;0.00;0.00;;;21.20;99.90;;;;;;4938455;28;20229;-76
2022/05/02 13:52:55;;;;;;;0.00;0.00;;;21.20;99.90;;;;;;4958410;28;20205;-77
2022/05/02 13:55:29;;;;;;;0.00;0.00;;;21.10;99.90;;;;;;4940080;28;20711;-75
2022/05/02 13:58:07;;;;;;;0.00;0.00;;;21.10;99.90;;;;;;4942558;28;20201;-75
2022/05/02 14:03:42;;;;;;;0.00;0.00;;;21.10;99.90;;;;;;4957554;28;20762;-76
2022/05/02 14:06:12;;;;;;;0.00;0.00;;;21.10;99.90;;;;;;4940514;28;20312;-76
2022/05/02 14:08:43;;;;;;;0.00;0.00;;;21.00;99.90;;;;;;4943359;28;20204;-75
2022/05/02 14:11:17;;;;;;;0.00;0.00;;;21.00;99.90;;;;;;4955141;28;20301;-75
2022/05/02 14:13:47;;;;;;;0.00;0.00;;;20.90;99.90;;;;;;4960901;28;20232;-77
2022/05/02 14:16:15;;;;;;;0.00;0.00;;;20.90;99.90;;;;;;4959236;28;20281;-76
2022/05/02 14:18:54;;;;;;;0.00;0.00;;;20.90;99.90;;;;;;4958311;28;20209;-76
2022/05/02 14:21:22;;;;;;;0.00;0.00;;;20.80;99.90;;;;;;4959391;28;20284;-76
2022/05/02 14:23:53;;;;;;;0.00;0.00;;;20.70;99.90;;;;;;4944652;28;20316;-75
2022/05/02 14:26:26;;;;;;;0.00;0.00;;;20.70;99.90;;;;;;4959598;28;20229;-75
2022/05/02 14:28:54;;;;;;;0.00;0.00;;;20.60;99.90;;;;;;4964931;28;20214;-76
2022/05/02 14:31:33;;;;;;;0.00;0.00;;;20.60;99.90;;;;;;4963041;28;20203;-76
2022/05/02 14:34:05;;;;;;;0.00;0.00;;;20.60;99.90;;;;;;4945711;28;20229;-74
2022/05/02 14:36:32;;;;;;;0.00;0.00;;;20.50;99.90;;;;;;4963323;28;20217;-77
2022/05/02 14:39:01;;;;;;;0.00;0.00;;;20.50;99.90;;;;;;4966297;28;20833;-75
2022/05/02 14:41:31;;;;;;;0.00;0.00;;;20.30;99.90;;;;;;4962132;28;20194;-74
2022/05/02 14:43:59;;;;;;;0.00;0.00;;;20.30;99.90;;;;;;4939928;28;20237;-75
2022/05/02 14:46:28;;;;;;;0.00;0.00;;;20.30;99.90;;;;;;4957983;28;20229;-74
2022/05/02 14:48:56;;;;;;;0.00;0.00;;;20.30;99.90;;;;;;4956858;28;20199;-72
2022/05/02 14:51:28;;;;;;;0.00;0.00;;;20.40;99.90;;;;;;4958730;28;20660;-73
2022/05/02 14:53:59;;;;;;;0.00;0.00;;;20.40;99.90;;;;;;4962497;28;20228;-73
2022/05/02 14:56:34;;;;;;;0.00;0.00;;;20.50;99.90;;;;;;4961279;28;20609;-73
2022/05/02 14:59:03;;;;;;;0.00;0.00;;;20.60;99.90;;;;;;4957046;28;20265;-74